createdAt,value
2022-11-05T00:02:20.166Z,51.37
2022-11-05T00:07:40.289Z,51.36
2022-11-05T00:12:56.786Z,51.18
2022-11-05T00:17:56.960Z,50.83
2022-11-05T00:23:18.909Z,51.21
2022-11-05T00:28:17.695Z,52.45
2022-11-05T00:33:18.286Z,54.04
2022-11-05T00:38:17.141Z,54.49
2022-11-05T00:43:47.878Z,54.23
2022-11-05T00:49:05.264Z,53.53
2022-11-05T00:54:04.186Z,54.85
2022-11-05T00:59:03.031Z,53.61
2022-11-05T01:04:03.337Z,54.60
2022-11-05T01:09:02.095Z,54.92
2022-11-05T01:14:01.376Z,55.06
2022-11-05T01:19:00.345Z,56.38
2022-11-05T01:24:00.705Z,55.67
2022-11-05T01:29:00.975Z,55.90
2022-11-05T01:34:01.780Z,56.38
2022-11-05T01:39:02.612Z,56.50
2022-11-05T01:44:01.432Z,56.24
2022-11-05T01:49:08.088Z,55.84
2022-11-05T01:54:14.926Z,56.36
2022-11-05T01:59:18.044Z,56.32
2022-11-05T02:04:28.398Z,55.96
2022-11-05T02:09:32.626Z,55.80
2022-11-05T02:14:31.514Z,56.83
2022-11-05T02:20:03.519Z,56.54
2022-11-05T02:25:25.090Z,56.45
2022-11-05T02:30:35.739Z,56.19
2022-11-05T02:35:51.228Z,57.07
2022-11-05T02:40:56.537Z,58.05
2022-11-05T02:46:04.394Z,57.93
2022-11-05T02:51:10.236Z,57.62
2022-11-05T02:56:14.618Z,57.10
2022-11-05T03:01:15.044Z,57.45
2022-11-05T03:06:49.956Z,56.97
2022-11-05T03:11:59.553Z,56.95
2022-11-05T03:17:09.215Z,56.18
2022-11-05T03:22:12.627Z,57.24
2022-11-05T03:27:14.846Z,56.98
2022-11-05T03:32:17.011Z,56.36
2022-11-05T03:37:18.157Z,56.11
2022-11-05T03:42:19.311Z,56.29
2022-11-05T03:47:23.905Z,56.89
2022-11-05T03:52:27.581Z,57.51
2022-11-05T03:57:30.727Z,58.05
2022-11-05T04:02:32.314Z,57.81
2022-11-05T04:07:48.163Z,58.49
2022-11-05T04:13:04.435Z,58.41
2022-11-05T04:18:04.838Z,59.03
2022-11-05T04:23:23.020Z,58.63
2022-11-05T04:28:41.911Z,58.73
2022-11-05T04:33:42.104Z,58.98
2022-11-05T04:38:41.131Z,59.45
2022-11-05T04:43:39.969Z,59.95
2022-11-05T04:48:39.262Z,60.14
2022-11-05T04:53:39.375Z,59.51
2022-11-05T04:58:40.857Z,59.18
2022-11-05T05:03:39.702Z,59.22
2022-11-05T05:08:39.995Z,58.95
2022-11-05T05:13:38.789Z,59.45
2022-11-05T05:18:40.976Z,59.60
2022-11-05T05:23:45.643Z,58.62
2022-11-05T05:28:44.525Z,57.82
2022-11-05T05:33:43.274Z,57.69
2022-11-05T05:38:42.183Z,57.36
2022-11-05T05:43:42.373Z,57.59
2022-11-05T05:48:41.282Z,57.69
2022-11-05T05:53:40.282Z,57.71
2022-11-05T05:58:40.527Z,57.62
2022-11-05T06:03:41.240Z,57.73
2022-11-05T06:08:40.594Z,58.37
2022-11-05T06:13:39.552Z,58.34
2022-11-05T06:18:40.150Z,59.22
2022-11-05T06:23:40.656Z,59.05
2022-11-05T06:28:39.425Z,59.01
2022-11-05T06:33:38.817Z,59.13
2022-11-05T06:38:39.182Z,58.82
2022-11-05T06:43:38.393Z,58.23
2022-11-05T06:48:37.214Z,57.68
2022-11-05T06:53:36.093Z,57.22
2022-11-05T06:58:38.891Z,56.91
2022-11-05T07:03:37.490Z,56.38
2022-11-05T07:08:39.107Z,56.74
2022-11-05T07:13:42.297Z,56.21
2022-11-05T07:18:41.210Z,55.78
2022-11-05T07:23:41.537Z,55.29
2022-11-05T07:28:41.829Z,54.97
2022-11-05T07:33:41.080Z,54.99
2022-11-05T07:38:43.156Z,55.20
2022-11-05T07:43:45.244Z,55.98
2022-11-05T07:48:44.559Z,55.56
2022-11-05T07:53:45.797Z,55.71
2022-11-05T07:58:46.671Z,55.28
2022-11-05T08:03:49.592Z,55.11
2022-11-05T08:08:48.592Z,56.40
2022-11-05T08:13:50.105Z,56.34
2022-11-05T08:18:50.389Z,55.88
2022-11-05T08:23:51.247Z,54.81
2022-11-05T08:28:51.703Z,54.48
2022-11-05T08:33:50.683Z,53.95
2022-11-05T08:38:49.577Z,53.74
2022-11-05T08:43:48.488Z,53.52
2022-11-05T08:48:48.875Z,52.80
2022-11-05T08:53:48.388Z,52.21
2022-11-05T08:58:47.362Z,51.17
2022-11-05T09:03:46.426Z,49.77
2022-11-05T09:08:46.914Z,48.73
2022-11-05T09:13:45.859Z,47.31
2022-11-05T09:18:44.834Z,46.92
2022-11-05T09:23:43.690Z,45.64
2022-11-05T09:28:44.527Z,44.64
2022-11-05T09:33:43.344Z,43.70
2022-11-05T09:38:42.165Z,44.27
2022-11-05T09:43:46.147Z,43.00
2022-11-05T09:48:49.335Z,41.95
2022-11-05T09:53:48.716Z,42.14
2022-11-05T09:58:52.959Z,42.83
2022-11-05T10:03:56.417Z,44.01
2022-11-05T10:09:21.938Z,44.12
2022-11-05T10:14:26.027Z,43.57
2022-11-05T10:19:27.996Z,40.07
2022-11-05T10:24:36.997Z,40.50
2022-11-05T10:29:37.855Z,39.36
2022-11-05T10:34:39.583Z,39.67
2022-11-05T10:39:38.878Z,39.28
2022-11-05T10:44:47.831Z,38.40
2022-11-05T10:49:55.750Z,37.72
2022-11-05T10:54:58.964Z,36.08
2022-11-05T11:00:24.904Z,34.27
2022-11-05T11:05:26.998Z,35.42
2022-11-05T11:10:27.660Z,33.76
2022-11-05T11:15:33.354Z,33.15
2022-11-05T11:20:33.954Z,32.96
2022-11-05T11:25:40.953Z,32.21
2022-11-05T11:30:50.452Z,32.28
2022-11-05T11:35:50.325Z,31.19
2022-11-05T11:40:49.348Z,31.30
2022-11-05T11:45:53.089Z,31.44
2022-11-05T11:50:52.481Z,31.46
2022-11-05T11:56:01.044Z,31.43
2022-11-05T12:01:16.675Z,32.05
2022-11-05T12:06:26.483Z,30.36
2022-11-05T12:11:41.851Z,30.60
2022-11-05T12:23:46.268Z,31.47
2022-11-05T12:34:36.113Z,31.53
2022-11-05T12:39:47.327Z,31.92
2022-11-05T12:45:30.194Z,32.35
2022-11-05T12:51:17.433Z,33.39
2022-11-05T12:56:42.040Z,33.16
2022-11-05T13:01:50.883Z,32.16
2022-11-05T13:06:57.129Z,32.52
2022-11-05T13:12:00.433Z,32.04
2022-11-05T13:17:03.747Z,32.31
2022-11-05T13:22:14.826Z,32.33
2022-11-05T13:27:32.061Z,31.94
2022-11-05T13:33:19.159Z,32.67
2022-11-05T13:44:45.524Z,34.07
2022-11-05T13:50:13.728Z,34.04
2022-11-05T13:55:39.307Z,35.52
2022-11-05T14:07:42.207Z,36.71
2022-11-05T14:12:48.826Z,36.95
2022-11-05T14:18:00.536Z,38.07
2022-11-05T14:23:30.826Z,38.43
2022-11-05T14:28:41.124Z,39.32
2022-11-05T14:33:41.603Z,40.00
2022-11-05T14:38:48.113Z,40.90
2022-11-05T14:43:55.581Z,41.81
2022-11-05T14:49:05.138Z,42.07
2022-11-05T14:54:20.503Z,43.06
2022-11-05T14:59:51.999Z,44.53
2022-11-05T15:04:53.340Z,45.32
2022-11-05T15:10:02.332Z,46.54
2022-11-05T15:15:23.063Z,46.84
2022-11-05T15:20:25.334Z,47.55
2022-11-05T15:25:30.718Z,48.61
2022-11-05T15:30:31.503Z,49.32
2022-11-05T15:35:31.532Z,50.56
2022-11-05T15:40:35.872Z,51.03
2022-11-05T15:45:37.458Z,51.54
2022-11-05T15:50:36.260Z,52.64
2022-11-05T15:55:35.357Z,53.47
2022-11-05T16:00:37.784Z,53.65
2022-11-05T16:05:43.236Z,54.21
2022-11-05T16:10:49.084Z,54.46
2022-11-05T16:15:56.938Z,55.70
2022-11-05T16:21:07.300Z,57.06
2022-11-05T16:26:06.320Z,57.38
2022-11-05T16:31:06.954Z,58.41
2022-11-05T16:36:06.731Z,59.79
2022-11-05T16:41:05.538Z,60.79
2022-11-05T16:46:04.487Z,60.66
2022-11-05T16:51:04.842Z,61.07
2022-11-05T16:56:03.957Z,61.34
2022-11-05T17:01:05.736Z,62.45
2022-11-05T17:06:06.630Z,63.28
2022-11-05T17:11:05.650Z,63.40
2022-11-05T17:16:05.881Z,64.32
2022-11-05T17:21:26.563Z,64.90
2022-11-05T17:32:23.913Z,65.21
2022-11-05T17:37:24.141Z,65.54
2022-11-05T17:42:37.155Z,65.07
2022-11-05T17:47:41.776Z,66.01
2022-11-05T17:53:01.444Z,65.50
2022-11-05T17:58:52.917Z,65.17
2022-11-05T18:03:52.536Z,65.86
2022-11-05T18:08:53.602Z,65.58
2022-11-05T18:13:53.027Z,66.00
2022-11-05T18:18:53.079Z,65.95
2022-11-05T18:23:54.217Z,66.87
2022-11-05T18:28:53.632Z,67.20
2022-11-05T18:33:57.982Z,67.25
2022-11-05T18:39:01.682Z,67.49
2022-11-05T18:44:01.435Z,68.63
2022-11-05T18:49:00.796Z,68.41
2022-11-05T18:54:01.109Z,68.60
2022-11-05T18:59:29.887Z,68.91
2022-11-05T19:04:18.874Z,69.50
2022-11-05T19:09:21.028Z,68.93
2022-11-05T19:14:19.960Z,69.51
2022-11-05T19:19:18.816Z,70.90
2022-11-05T19:24:23.778Z,71.79
2022-11-05T19:29:23.828Z,70.83
2022-11-05T19:34:26.434Z,72.16
2022-11-05T19:39:28.738Z,72.74
2022-11-05T19:44:28.855Z,72.94
2022-11-05T19:49:28.563Z,73.46
2022-11-05T19:54:28.764Z,73.94
2022-11-05T19:59:27.593Z,73.50
2022-11-05T20:04:26.600Z,73.28
2022-11-05T20:09:26.071Z,72.76
2022-11-05T20:14:32.316Z,74.46
2022-11-05T20:19:35.346Z,74.83
2022-11-05T20:24:34.538Z,75.57
2022-11-05T20:29:35.930Z,76.02
2022-11-05T20:34:35.866Z,75.21
2022-11-05T20:39:34.763Z,76.14
2022-11-05T20:44:39.709Z,75.40
2022-11-05T20:49:38.831Z,75.20
2022-11-05T20:54:38.733Z,75.42
2022-11-05T20:59:38.525Z,76.11
2022-11-05T21:04:40.404Z,75.26
2022-11-05T21:09:39.185Z,74.57
2022-11-05T21:14:38.717Z,74.38
2022-11-05T21:19:40.039Z,73.34
2022-11-05T21:24:38.966Z,72.14
2022-11-05T21:29:41.483Z,71.56
2022-11-05T21:34:42.114Z,71.94
2022-11-05T21:39:42.434Z,71.94
2022-11-05T21:44:42.484Z,72.03
2022-11-05T21:49:42.619Z,72.68
2022-11-05T21:54:59.056Z,73.07
2022-11-05T22:00:00.595Z,73.79
2022-11-05T22:05:00.761Z,74.12
2022-11-05T22:09:59.737Z,74.73
2022-11-05T22:14:58.636Z,73.85
2022-11-05T22:19:57.752Z,72.52
2022-11-05T22:24:57.945Z,72.11
2022-11-05T22:29:56.903Z,72.50
2022-11-05T22:34:55.729Z,72.51
2022-11-05T22:39:54.991Z,71.79
2022-11-05T22:44:55.485Z,70.85
2022-11-05T22:49:54.229Z,71.16
2022-11-05T22:54:53.104Z,71.91
2022-11-05T22:59:51.864Z,72.47
2022-11-05T23:04:53.786Z,72.20
2022-11-05T23:10:10.082Z,71.80
2022-11-05T23:15:29.804Z,72.49
2022-11-05T23:20:47.543Z,72.44
2022-11-05T23:25:46.536Z,72.76
2022-11-05T23:30:59.863Z,72.47
2022-11-05T23:36:17.635Z,73.45
2022-11-05T23:41:33.928Z,74.50
2022-11-05T23:46:50.262Z,74.74
2022-11-05T23:51:50.951Z,74.12
2022-11-05T23:56:49.733Z,73.76
